フナフティ島 の空港の天気 - METARとTAF

フナフティ国際空港 ( NGFU / FUN ) - ツバル フナフティ島
飛行場実況気象(Metar)
観測時間09/19 11:00 TVT (09/18 23:00 UTC)
風向・風速東 4m/s
視程10km以上
天気現象
少しの雲 雲底高度 550m
全天の8割程度の雲 雲底高度 9140m
気温32℃
湿度71%
気圧1013hPa
METARNGFU 182300Z 09008KT 9999 FEW018TCU BKN300 32/26 Q1013
過去の天気等 Google飛行場航空写真 Wunderground天気予報

過去48時間のMETAR

飛行場予報(TAF)
発表時間: 9/19 11:20 TVT (9/18 23:20 UTC)
予報対象時間: 19日12時 TVT ~ 20日12時 TVT
風向・風速東 5m/s
視程10km以上
少しの雲 雲底高度 550m
全天の8割程度の雲 雲底高度 3050m
20日0時 TVT ~ 20日6時 TVT に 確率 30% で一時的に
視程5000m
天気現象しゅう雨
全天の8割程度の雲 雲底高度 550m
TAF NGFU 182320Z 1900/1924 09010KT 9999 FEW018 BKN100
PROB30 TEMPO 1912/1918 5000 SHRA BKN018